sensor_id;sensor_type;location;lat;lon;timestamp;P1;durP1;ratioP1;P2;durP2;ratioP2
781;SDS011;374;52.568;13.402;2023-06-04T00:00:35;4.20;;;3.13;;
781;SDS011;374;52.568;13.402;2023-06-04T00:03:01;2.87;;;2.67;;
781;SDS011;374;52.568;13.402;2023-06-04T00:05:26;3.00;;;2.80;;
781;SDS011;374;52.568;13.402;2023-06-04T00:07:52;3.90;;;3.20;;
781;SDS011;374;52.568;13.402;2023-06-04T00:10:17;4.13;;;3.43;;
781;SDS011;374;52.568;13.402;2023-06-04T00:12:43;4.07;;;3.07;;
781;SDS011;374;52.568;13.402;2023-06-04T00:15:08;3.50;;;3.20;;
781;SDS011;374;52.568;13.402;2023-06-04T00:17:34;3.13;;;2.63;;
781;SDS011;374;52.568;13.402;2023-06-04T00:20:00;3.03;;;2.73;;
781;SDS011;374;52.568;13.402;2023-06-04T00:22:25;4.60;;;2.93;;
781;SDS011;374;52.568;13.402;2023-06-04T00:24:51;3.60;;;2.77;;
781;SDS011;374;52.568;13.402;2023-06-04T00:27:16;4.60;;;2.73;;
781;SDS011;374;52.568;13.402;2023-06-04T00:29:42;2.90;;;2.70;;
781;SDS011;374;52.568;13.402;2023-06-04T00:32:08;2.90;;;2.40;;
781;SDS011;374;52.568;13.402;2023-06-04T00:34:33;3.00;;;2.80;;
781;SDS011;374;52.568;13.402;2023-06-04T00:36:59;3.90;;;2.50;;
781;SDS011;374;52.568;13.402;2023-06-04T00:39:26;2.73;;;2.53;;
781;SDS011;374;52.568;13.402;2023-06-04T00:41:51;3.57;;;2.90;;
781;SDS011;374;52.568;13.402;2023-06-04T00:44:17;3.27;;;2.40;;
781;SDS011;374;52.568;13.402;2023-06-04T00:46:43;2.53;;;2.33;;
781;SDS011;374;52.568;13.402;2023-06-04T00:49:10;2.50;;;2.30;;
781;SDS011;374;52.568;13.402;2023-06-04T00:51:37;1.97;;;1.87;;
781;SDS011;374;52.568;13.402;2023-06-04T00:54:02;3.77;;;2.10;;
781;SDS011;374;52.568;13.402;2023-06-04T00:56:33;2.20;;;2.10;;
781;SDS011;374;52.568;13.402;2023-06-04T00:58:59;2.20;;;2.00;;
781;SDS011;374;52.568;13.402;2023-06-04T01:01:33;2.10;;;1.80;;
781;SDS011;374;52.568;13.402;2023-06-04T01:04:05;2.70;;;2.00;;
781;SDS011;374;52.568;13.402;2023-06-04T01:06:43;3.10;;;2.57;;
781;SDS011;374;52.568;13.402;2023-06-04T01:09:12;4.63;;;2.03;;
781;SDS011;374;52.568;13.402;2023-06-04T01:11:39;2.53;;;1.90;;
781;SDS011;374;52.568;13.402;2023-06-04T01:14:05;2.93;;;2.17;;
781;SDS011;374;52.568;13.402;2023-06-04T01:16:52;3.17;;;1.67;;
781;SDS011;374;52.568;13.402;2023-06-04T01:22:35;2.17;;;2.00;;
781;SDS011;374;52.568;13.402;2023-06-04T01:28:03;2.63;;;2.43;;
781;SDS011;374;52.568;13.402;2023-06-04T01:30:31;2.27;;;2.07;;
781;SDS011;374;52.568;13.402;2023-06-04T01:32:59;2.80;;;2.00;;
781;SDS011;374;52.568;13.402;2023-06-04T01:35:26;2.43;;;2.23;;
781;SDS011;374;52.568;13.402;2023-06-04T01:37:53;3.37;;;2.60;;
781;SDS011;374;52.568;13.402;2023-06-04T01:40:19;2.70;;;2.50;;
781;SDS011;374;52.568;13.402;2023-06-04T01:42:45;2.70;;;2.03;;
781;SDS011;374;52.568;13.402;2023-06-04T01:45:10;2.87;;;2.20;;
781;SDS011;374;52.568;13.402;2023-06-04T01:47:36;2.50;;;2.03;;
781;SDS011;374;52.568;13.402;2023-06-04T01:50:02;1.93;;;1.83;;
781;SDS011;374;52.568;13.402;2023-06-04T01:52:34;2.47;;;2.27;;
781;SDS011;374;52.568;13.402;2023-06-04T01:55:04;2.20;;;1.90;;
781;SDS011;374;52.568;13.402;2023-06-04T01:57:30;2.17;;;2.07;;
781;SDS011;374;52.568;13.402;2023-06-04T01:59:55;2.13;;;1.70;;
781;SDS011;374;52.568;13.402;2023-06-04T02:02:21;1.70;;;1.60;;
781;SDS011;374;52.568;13.402;2023-06-04T02:04:47;2.97;;;2.60;;
781;SDS011;374;52.568;13.402;2023-06-04T02:07:12;2.30;;;2.10;;
781;SDS011;374;52.568;13.402;2023-06-04T02:09:45;3.77;;;2.50;;
781;SDS011;374;52.568;13.402;2023-06-04T02:12:14;3.20;;;1.97;;
781;SDS011;374;52.568;13.402;2023-06-04T02:14:40;2.00;;;1.83;;
781;SDS011;374;52.568;13.402;2023-06-04T02:17:12;2.33;;;1.80;;
781;SDS011;374;52.568;13.402;2023-06-04T02:19:44;2.10;;;2.00;;
781;SDS011;374;52.568;13.402;2023-06-04T02:22:14;2.27;;;2.07;;
781;SDS011;374;52.568;13.402;2023-06-04T02:24:40;4.10;;;2.30;;
781;SDS011;374;52.568;13.402;2023-06-04T02:27:07;2.70;;;2.53;;
781;SDS011;374;52.568;13.402;2023-06-04T02:29:33;3.33;;;2.80;;
781;SDS011;374;52.568;13.402;2023-06-04T02:31:58;2.97;;;2.50;;
781;SDS011;374;52.568;13.402;2023-06-04T02:34:24;3.27;;;2.97;;
781;SDS011;374;52.568;13.402;2023-06-04T02:36:50;3.07;;;2.70;;
781;SDS011;374;52.568;13.402;2023-06-04T02:39:16;4.30;;;2.57;;
781;SDS011;374;52.568;13.402;2023-06-04T02:41:42;4.03;;;3.00;;
781;SDS011;374;52.568;13.402;2023-06-04T02:44:08;2.93;;;2.70;;
781;SDS011;374;52.568;13.402;2023-06-04T02:46:33;5.37;;;2.80;;
781;SDS011;374;52.568;13.402;2023-06-04T02:48:59;3.70;;;3.00;;
781;SDS011;374;52.568;13.402;2023-06-04T02:51:25;3.30;;;2.60;;
781;SDS011;374;52.568;13.402;2023-06-04T02:53:50;3.23;;;2.97;;
781;SDS011;374;52.568;13.402;2023-06-04T02:56:16;3.23;;;2.97;;
781;SDS011;374;52.568;13.402;2023-06-04T02:58:49;3.93;;;2.87;;
781;SDS011;374;52.568;13.402;2023-06-04T03:01:18;3.97;;;3.37;;
781;SDS011;374;52.568;13.402;2023-06-04T03:03:45;3.50;;;3.23;;
781;SDS011;374;52.568;13.402;2023-06-04T03:06:11;4.03;;;3.57;;
781;SDS011;374;52.568;13.402;2023-06-04T03:08:39;3.50;;;3.20;;
781;SDS011;374;52.568;13.402;2023-06-04T03:11:05;3.20;;;2.90;;
781;SDS011;374;52.568;13.402;2023-06-04T03:13:30;3.30;;;3.00;;
781;SDS011;374;52.568;13.402;2023-06-04T03:15:59;3.47;;;3.17;;
781;SDS011;374;52.568;13.402;2023-06-04T03:18:27;3.13;;;2.90;;
781;SDS011;374;52.568;13.402;2023-06-04T03:20:54;4.90;;;3.27;;
781;SDS011;374;52.568;13.402;2023-06-04T03:23:23;6.97;;;3.30;;
781;SDS011;374;52.568;13.402;2023-06-04T03:25:48;3.40;;;3.10;;
781;SDS011;374;52.568;13.402;2023-06-04T03:28:13;3.70;;;3.40;;
781;SDS011;374;52.568;13.402;2023-06-04T03:30:40;3.97;;;3.57;;
781;SDS011;374;52.568;13.402;2023-06-04T03:33:06;3.97;;;3.33;;
781;SDS011;374;52.568;13.402;2023-06-04T03:35:32;5.20;;;3.77;;
781;SDS011;374;52.568;13.402;2023-06-04T03:37:58;5.57;;;3.30;;
781;SDS011;374;52.568;13.402;2023-06-04T03:40:23;3.33;;;3.13;;
781;SDS011;374;52.568;13.402;2023-06-04T03:42:49;4.20;;;3.43;;
781;SDS011;374;52.568;13.402;2023-06-04T03:45:14;5.07;;;3.40;;
781;SDS011;374;52.568;13.402;2023-06-04T03:47:40;3.53;;;3.13;;
781;SDS011;374;52.568;13.402;2023-06-04T03:50:05;4.20;;;3.67;;
781;SDS011;374;52.568;13.402;2023-06-04T03:52:31;3.40;;;3.10;;
781;SDS011;374;52.568;13.402;2023-06-04T03:54:57;4.10;;;2.63;;
781;SDS011;374;52.568;13.402;2023-06-04T03:57:23;2.70;;;2.50;;
781;SDS011;374;52.568;13.402;2023-06-04T03:59:49;3.17;;;2.77;;
781;SDS011;374;52.568;13.402;2023-06-04T04:02:15;3.50;;;3.20;;
781;SDS011;374;52.568;13.402;2023-06-04T04:04:41;2.80;;;2.50;;
781;SDS011;374;52.568;13.402;2023-06-04T04:07:07;4.63;;;3.20;;
781;SDS011;374;52.568;13.402;2023-06-04T04:09:33;4.00;;;3.43;;
781;SDS011;374;52.568;13.402;2023-06-04T04:11:59;2.83;;;2.50;;
781;SDS011;374;52.568;13.402;2023-06-04T04:14:25;3.43;;;2.87;;
781;SDS011;374;52.568;13.402;2023-06-04T04:16:50;3.77;;;2.40;;
781;SDS011;374;52.568;13.402;2023-06-04T04:19:16;2.47;;;2.27;;
781;SDS011;374;52.568;13.402;2023-06-04T04:21:41;2.90;;;2.50;;
781;SDS011;374;52.568;13.402;2023-06-04T04:24:07;4.00;;;3.10;;
781;SDS011;374;52.568;13.402;2023-06-04T04:26:32;3.40;;;3.10;;
781;SDS011;374;52.568;13.402;2023-06-04T04:28:59;3.93;;;2.73;;
781;SDS011;374;52.568;13.402;2023-06-04T04:31:25;2.97;;;2.70;;
781;SDS011;374;52.568;13.402;2023-06-04T04:33:52;3.10;;;2.63;;
781;SDS011;374;52.568;13.402;2023-06-04T04:36:19;2.60;;;2.40;;
781;SDS011;374;52.568;13.402;2023-06-04T04:38:45;3.60;;;2.87;;
781;SDS011;374;52.568;13.402;2023-06-04T04:41:10;3.60;;;2.80;;
781;SDS011;374;52.568;13.402;2023-06-04T04:43:36;3.70;;;2.47;;
781;SDS011;374;52.568;13.402;2023-06-04T04:46:04;3.17;;;2.67;;
781;SDS011;374;52.568;13.402;2023-06-04T04:48:30;2.47;;;2.27;;
781;SDS011;374;52.568;13.402;2023-06-04T04:50:55;3.13;;;2.40;;
781;SDS011;374;52.568;13.402;2023-06-04T04:53:21;2.73;;;1.60;;
781;SDS011;374;52.568;13.402;2023-06-04T04:55:47;2.83;;;2.50;;
781;SDS011;374;52.568;13.402;2023-06-04T04:58:12;2.10;;;1.90;;
781;SDS011;374;52.568;13.402;2023-06-04T05:00:38;2.63;;;2.17;;
781;SDS011;374;52.568;13.402;2023-06-04T05:03:04;2.87;;;2.40;;
781;SDS011;374;52.568;13.402;2023-06-04T05:05:31;2.60;;;1.90;;
781;SDS011;374;52.568;13.402;2023-06-04T05:07:57;3.23;;;2.40;;
781;SDS011;374;52.568;13.402;2023-06-04T05:10:22;2.83;;;2.63;;
781;SDS011;374;52.568;13.402;2023-06-04T05:12:58;2.30;;;2.17;;
781;SDS011;374;52.568;13.402;2023-06-04T05:15:25;2.23;;;2.03;;
781;SDS011;374;52.568;13.402;2023-06-04T05:17:52;2.83;;;2.60;;
781;SDS011;374;52.568;13.402;2023-06-04T05:20:18;2.50;;;2.10;;
781;SDS011;374;52.568;13.402;2023-06-04T05:22:46;2.80;;;2.50;;
781;SDS011;374;52.568;13.402;2023-06-04T05:25:11;2.10;;;1.90;;
781;SDS011;374;52.568;13.402;2023-06-04T05:27:37;5.50;;;2.30;;
781;SDS011;374;52.568;13.402;2023-06-04T05:30:04;5.47;;;2.87;;
781;SDS011;374;52.568;13.402;2023-06-04T05:32:30;3.43;;;3.07;;
781;SDS011;374;52.568;13.402;2023-06-04T05:34:57;2.83;;;2.47;;
781;SDS011;374;52.568;13.402;2023-06-04T05:37:23;2.67;;;2.00;;
781;SDS011;374;52.568;13.402;2023-06-04T05:39:55;3.40;;;2.30;;
781;SDS011;374;52.568;13.402;2023-06-04T05:42:21;4.30;;;2.50;;
781;SDS011;374;52.568;13.402;2023-06-04T05:44:47;3.80;;;2.40;;
781;SDS011;374;52.568;13.402;2023-06-04T05:47:13;2.40;;;2.30;;
781;SDS011;374;52.568;13.402;2023-06-04T05:49:41;6.47;;;3.10;;
781;SDS011;374;52.568;13.402;2023-06-04T05:52:09;2.83;;;2.63;;
781;SDS011;374;52.568;13.402;2023-06-04T05:54:35;4.87;;;2.40;;
781;SDS011;374;52.568;13.402;2023-06-04T05:57:02;2.90;;;2.57;;
781;SDS011;374;52.568;13.402;2023-06-04T05:59:29;3.13;;;2.57;;
781;SDS011;374;52.568;13.402;2023-06-04T06:01:54;4.00;;;2.43;;
781;SDS011;374;52.568;13.402;2023-06-04T06:04:20;2.83;;;2.63;;
781;SDS011;374;52.568;13.402;2023-06-04T06:06:45;2.63;;;2.17;;
781;SDS011;374;52.568;13.402;2023-06-04T06:09:13;3.50;;;2.30;;
781;SDS011;374;52.568;13.402;2023-06-04T06:11:40;2.33;;;1.73;;
781;SDS011;374;52.568;13.402;2023-06-04T06:14:06;3.97;;;1.97;;
781;SDS011;374;52.568;13.402;2023-06-04T06:16:31;2.50;;;2.30;;
781;SDS011;374;52.568;13.402;2023-06-04T06:19:00;2.83;;;1.77;;
781;SDS011;374;52.568;13.402;2023-06-04T06:21:26;5.73;;;2.37;;
781;SDS011;374;52.568;13.402;2023-06-04T06:23:53;2.10;;;2.00;;
781;SDS011;374;52.568;13.402;2023-06-04T06:26:18;3.57;;;1.80;;
781;SDS011;374;52.568;13.402;2023-06-04T06:28:44;2.33;;;1.80;;
781;SDS011;374;52.568;13.402;2023-06-04T06:31:09;1.80;;;1.70;;
781;SDS011;374;52.568;13.402;2023-06-04T06:33:35;4.10;;;2.17;;
781;SDS011;374;52.568;13.402;2023-06-04T06:36:06;2.37;;;2.17;;
781;SDS011;374;52.568;13.402;2023-06-04T06:38:37;3.30;;;2.00;;
781;SDS011;374;52.568;13.402;2023-06-04T06:41:02;1.73;;;1.60;;
781;SDS011;374;52.568;13.402;2023-06-04T06:43:37;1.90;;;1.60;;
781;SDS011;374;52.568;13.402;2023-06-04T06:46:02;4.10;;;2.03;;
781;SDS011;374;52.568;13.402;2023-06-04T06:48:28;2.73;;;2.13;;
781;SDS011;374;52.568;13.402;2023-06-04T06:50:57;1.43;;;1.33;;
781;SDS011;374;52.568;13.402;2023-06-04T06:53:25;2.80;;;1.70;;
781;SDS011;374;52.568;13.402;2023-06-04T06:55:50;1.50;;;1.30;;
781;SDS011;374;52.568;13.402;2023-06-04T06:58:16;3.83;;;1.23;;
781;SDS011;374;52.568;13.402;2023-06-04T07:00:41;2.70;;;1.77;;
781;SDS011;374;52.568;13.402;2023-06-04T07:03:07;1.67;;;1.57;;
781;SDS011;374;52.568;13.402;2023-06-04T07:05:33;1.93;;;1.10;;
781;SDS011;374;52.568;13.402;2023-06-04T07:07:58;4.00;;;1.60;;
781;SDS011;374;52.568;13.402;2023-06-04T07:10:25;2.47;;;1.70;;
781;SDS011;374;52.568;13.402;2023-06-04T07:12:52;2.27;;;1.37;;
781;SDS011;374;52.568;13.402;2023-06-04T07:15:17;2.40;;;1.23;;
781;SDS011;374;52.568;13.402;2023-06-04T07:17:43;1.57;;;1.10;;
781;SDS011;374;52.568;13.402;2023-06-04T07:20:09;1.37;;;1.17;;
781;SDS011;374;52.568;13.402;2023-06-04T07:22:34;4.40;;;1.20;;
781;SDS011;374;52.568;13.402;2023-06-04T07:25:00;1.73;;;1.63;;
781;SDS011;374;52.568;13.402;2023-06-04T07:27:26;1.80;;;1.30;;
781;SDS011;374;52.568;13.402;2023-06-04T07:29:51;3.33;;;1.33;;
781;SDS011;374;52.568;13.402;2023-06-04T07:32:17;2.10;;;1.30;;
781;SDS011;374;52.568;13.402;2023-06-04T07:34:42;1.00;;;1.00;;
781;SDS011;374;52.568;13.402;2023-06-04T07:37:08;1.20;;;1.10;;
781;SDS011;374;52.568;13.402;2023-06-04T07:39:34;4.10;;;1.30;;
781;SDS011;374;52.568;13.402;2023-06-04T07:42:00;2.47;;;1.20;;
781;SDS011;374;52.568;13.402;2023-06-04T07:44:25;1.37;;;1.27;;
781;SDS011;374;52.568;13.402;2023-06-04T07:46:51;2.73;;;1.00;;
781;SDS011;374;52.568;13.402;2023-06-04T07:49:16;1.43;;;1.33;;
781;SDS011;374;52.568;13.402;2023-06-04T07:51:42;1.40;;;1.30;;
781;SDS011;374;52.568;13.402;2023-06-04T07:54:07;3.77;;;1.30;;
781;SDS011;374;52.568;13.402;2023-06-04T07:56:33;1.67;;;1.10;;
781;SDS011;374;52.568;13.402;2023-06-04T07:58:58;1.27;;;1.17;;
781;SDS011;374;52.568;13.402;2023-06-04T08:01:24;3.80;;;1.13;;
781;SDS011;374;52.568;13.402;2023-06-04T08:03:49;1.63;;;1.53;;
781;SDS011;374;52.568;13.402;2023-06-04T08:06:15;1.93;;;1.30;;
781;SDS011;374;52.568;13.402;2023-06-04T08:08:42;2.47;;;1.63;;
781;SDS011;374;52.568;13.402;2023-06-04T08:11:10;3.63;;;1.60;;
781;SDS011;374;52.568;13.402;2023-06-04T08:13:36;1.70;;;1.60;;
781;SDS011;374;52.568;13.402;2023-06-04T08:16:01;3.43;;;2.30;;
781;SDS011;374;52.568;13.402;2023-06-04T08:18:27;2.20;;;1.60;;
781;SDS011;374;52.568;13.402;2023-06-04T08:20:52;3.90;;;1.67;;
781;SDS011;374;52.568;13.402;2023-06-04T08:23:19;1.70;;;1.60;;
781;SDS011;374;52.568;13.402;2023-06-04T08:25:45;3.20;;;1.20;;
781;SDS011;374;52.568;13.402;2023-06-04T08:28:10;2.90;;;1.53;;
781;SDS011;374;52.568;13.402;2023-06-04T08:30:38;3.37;;;1.50;;
781;SDS011;374;52.568;13.402;2023-06-04T08:33:06;2.10;;;1.13;;
781;SDS011;374;52.568;13.402;2023-06-04T08:35:35;1.40;;;1.30;;
781;SDS011;374;52.568;13.402;2023-06-04T08:38:01;1.97;;;1.30;;
781;SDS011;374;52.568;13.402;2023-06-04T08:40:27;2.70;;;1.60;;
781;SDS011;374;52.568;13.402;2023-06-04T08:42:55;2.13;;;1.60;;
781;SDS011;374;52.568;13.402;2023-06-04T08:45:24;2.00;;;1.30;;
781;SDS011;374;52.568;13.402;2023-06-04T08:47:55;1.60;;;1.30;;
781;SDS011;374;52.568;13.402;2023-06-04T08:50:23;1.50;;;1.40;;
781;SDS011;374;52.568;13.402;2023-06-04T08:52:53;1.70;;;1.60;;
781;SDS011;374;52.568;13.402;2023-06-04T08:55:22;3.50;;;2.77;;
781;SDS011;374;52.568;13.402;2023-06-04T08:57:51;1.83;;;1.43;;
781;SDS011;374;52.568;13.402;2023-06-04T09:00:17;1.50;;;1.40;;
781;SDS011;374;52.568;13.402;2023-06-04T09:02:43;1.40;;;1.30;;
781;SDS011;374;52.568;13.402;2023-06-04T09:05:10;1.40;;;1.00;;
781;SDS011;374;52.568;13.402;2023-06-04T09:07:47;1.97;;;1.83;;
781;SDS011;374;52.568;13.402;2023-06-04T09:10:17;2.10;;;1.73;;
781;SDS011;374;52.568;13.402;2023-06-04T09:12:48;1.37;;;1.27;;
781;SDS011;374;52.568;13.402;2023-06-04T09:15:16;1.43;;;1.33;;
781;SDS011;374;52.568;13.402;2023-06-04T09:17:41;2.10;;;1.77;;
781;SDS011;374;52.568;13.402;2023-06-04T09:20:07;1.87;;;1.13;;
781;SDS011;374;52.568;13.402;2023-06-04T09:22:36;1.57;;;1.30;;
781;SDS011;374;52.568;13.402;2023-06-04T09:25:05;1.73;;;1.20;;
781;SDS011;374;52.568;13.402;2023-06-04T09:27:37;2.07;;;1.60;;
781;SDS011;374;52.568;13.402;2023-06-04T09:30:10;5.37;;;1.40;;
781;SDS011;374;52.568;13.402;2023-06-04T09:32:38;1.77;;;1.50;;
781;SDS011;374;52.568;13.402;2023-06-04T09:35:11;4.90;;;2.47;;
781;SDS011;374;52.568;13.402;2023-06-04T09:37:39;1.90;;;1.70;;
781;SDS011;374;52.568;13.402;2023-06-04T09:40:05;2.07;;;1.83;;
781;SDS011;374;52.568;13.402;2023-06-04T09:45:09;3.13;;;1.87;;
781;SDS011;374;52.568;13.402;2023-06-04T09:47:42;2.53;;;1.60;;
781;SDS011;374;52.568;13.402;2023-06-04T09:50:10;2.20;;;1.27;;
781;SDS011;374;52.568;13.402;2023-06-04T09:52:36;1.63;;;1.43;;
781;SDS011;374;52.568;13.402;2023-06-04T09:55:02;2.13;;;1.40;;
781;SDS011;374;52.568;13.402;2023-06-04T09:57:28;1.93;;;1.70;;
781;SDS011;374;52.568;13.402;2023-06-04T09:59:55;1.47;;;1.10;;
781;SDS011;374;52.568;13.402;2023-06-04T10:02:22;2.63;;;1.40;;
781;SDS011;374;52.568;13.402;2023-06-04T10:04:49;3.13;;;1.33;;
781;SDS011;374;52.568;13.402;2023-06-04T10:07:20;3.00;;;1.43;;
781;SDS011;374;52.568;13.402;2023-06-04T10:09:47;1.43;;;1.20;;
781;SDS011;374;52.568;13.402;2023-06-04T10:12:14;3.60;;;2.40;;
781;SDS011;374;52.568;13.402;2023-06-04T10:14:43;1.93;;;1.50;;
781;SDS011;374;52.568;13.402;2023-06-04T10:17:12;1.50;;;1.30;;
781;SDS011;374;52.568;13.402;2023-06-04T10:19:39;1.50;;;1.40;;
781;SDS011;374;52.568;13.402;2023-06-04T10:22:09;1.63;;;1.53;;
781;SDS011;374;52.568;13.402;2023-06-04T10:24:36;1.83;;;1.73;;
781;SDS011;374;52.568;13.402;2023-06-04T10:27:02;1.50;;;1.40;;
781;SDS011;374;52.568;13.402;2023-06-04T10:29:35;4.07;;;1.33;;
781;SDS011;374;52.568;13.402;2023-06-04T10:32:01;1.90;;;1.43;;
781;SDS011;374;52.568;13.402;2023-06-04T10:34:26;1.57;;;1.20;;
781;SDS011;374;52.568;13.402;2023-06-04T10:36:52;3.93;;;1.90;;
781;SDS011;374;52.568;13.402;2023-06-04T10:39:27;1.93;;;1.77;;
781;SDS011;374;52.568;13.402;2023-06-04T10:42:03;1.83;;;1.53;;
781;SDS011;374;52.568;13.402;2023-06-04T10:44:30;2.13;;;1.70;;
781;SDS011;374;52.568;13.402;2023-06-04T10:46:57;2.10;;;2.00;;
781;SDS011;374;52.568;13.402;2023-06-04T10:49:26;1.97;;;1.70;;
781;SDS011;374;52.568;13.402;2023-06-04T10:51:53;1.50;;;1.20;;
781;SDS011;374;52.568;13.402;2023-06-04T10:54:24;1.23;;;1.10;;
781;SDS011;374;52.568;13.402;2023-06-04T10:56:50;1.57;;;1.47;;
781;SDS011;374;52.568;13.402;2023-06-04T10:59:17;1.57;;;1.33;;
781;SDS011;374;52.568;13.402;2023-06-04T11:01:43;2.77;;;1.63;;
781;SDS011;374;52.568;13.402;2023-06-04T11:04:19;2.43;;;1.43;;
781;SDS011;374;52.568;13.402;2023-06-04T11:06:46;1.80;;;1.47;;
781;SDS011;374;52.568;13.402;2023-06-04T11:09:13;2.70;;;2.00;;
781;SDS011;374;52.568;13.402;2023-06-04T11:11:41;1.80;;;1.70;;
781;SDS011;374;52.568;13.402;2023-06-04T11:14:09;1.50;;;1.40;;
781;SDS011;374;52.568;13.402;2023-06-04T11:16:37;2.10;;;1.50;;
781;SDS011;374;52.568;13.402;2023-06-04T11:19:03;1.70;;;1.60;;
781;SDS011;374;52.568;13.402;2023-06-04T11:21:29;1.80;;;1.70;;
781;SDS011;374;52.568;13.402;2023-06-04T11:23:56;1.50;;;1.27;;
781;SDS011;374;52.568;13.402;2023-06-04T11:26:29;1.40;;;1.20;;
781;SDS011;374;52.568;13.402;2023-06-04T11:28:56;4.23;;;1.70;;
781;SDS011;374;52.568;13.402;2023-06-04T11:31:22;2.67;;;1.23;;
781;SDS011;374;52.568;13.402;2023-06-04T11:33:47;2.93;;;1.50;;
781;SDS011;374;52.568;13.402;2023-06-04T11:36:28;1.60;;;1.50;;
781;SDS011;374;52.568;13.402;2023-06-04T11:39:02;1.80;;;1.43;;
781;SDS011;374;52.568;13.402;2023-06-04T11:41:31;1.63;;;1.53;;
781;SDS011;374;52.568;13.402;2023-06-04T11:44:01;2.10;;;1.47;;
781;SDS011;374;52.568;13.402;2023-06-04T11:46:30;2.10;;;1.43;;
781;SDS011;374;52.568;13.402;2023-06-04T11:48:59;1.23;;;1.13;;
781;SDS011;374;52.568;13.402;2023-06-04T11:51:26;2.10;;;1.70;;
781;SDS011;374;52.568;13.402;2023-06-04T11:53:52;1.57;;;1.43;;
781;SDS011;374;52.568;13.402;2023-06-04T11:56:18;2.07;;;1.53;;
781;SDS011;374;52.568;13.402;2023-06-04T11:58:43;2.43;;;1.73;;
781;SDS011;374;52.568;13.402;2023-06-04T12:01:11;1.23;;;1.13;;
781;SDS011;374;52.568;13.402;2023-06-04T12:03:39;2.20;;;1.47;;
781;SDS011;374;52.568;13.402;2023-06-04T12:06:09;1.70;;;1.60;;
781;SDS011;374;52.568;13.402;2023-06-04T12:08:44;2.87;;;1.90;;
781;SDS011;374;52.568;13.402;2023-06-04T12:13:53;1.87;;;1.73;;
781;SDS011;374;52.568;13.402;2023-06-04T12:16:29;3.40;;;1.33;;
781;SDS011;374;52.568;13.402;2023-06-04T12:19:08;5.77;;;5.10;;
781;SDS011;374;52.568;13.402;2023-06-04T12:21:35;1.93;;;1.60;;
781;SDS011;374;52.568;13.402;2023-06-04T12:24:08;1.80;;;1.57;;
781;SDS011;374;52.568;13.402;2023-06-04T12:26:35;1.80;;;1.57;;
781;SDS011;374;52.568;13.402;2023-06-04T12:29:13;1.90;;;1.50;;
781;SDS011;374;52.568;13.402;2023-06-04T12:31:40;2.73;;;1.53;;
781;SDS011;374;52.568;13.402;2023-06-04T12:34:06;1.77;;;1.53;;
781;SDS011;374;52.568;13.402;2023-06-04T12:36:32;1.83;;;1.27;;
781;SDS011;374;52.568;13.402;2023-06-04T12:39:02;2.00;;;1.67;;
781;SDS011;374;52.568;13.402;2023-06-04T12:41:29;2.50;;;1.60;;
781;SDS011;374;52.568;13.402;2023-06-04T12:43:55;2.63;;;1.53;;
781;SDS011;374;52.568;13.402;2023-06-04T12:46:21;2.97;;;2.07;;
781;SDS011;374;52.568;13.402;2023-06-04T12:48:49;1.60;;;1.30;;
781;SDS011;374;52.568;13.402;2023-06-04T12:51:15;3.73;;;1.60;;
781;SDS011;374;52.568;13.402;2023-06-04T12:53:41;1.50;;;1.40;;
781;SDS011;374;52.568;13.402;2023-06-04T12:56:07;1.90;;;1.33;;
781;SDS011;374;52.568;13.402;2023-06-04T12:58:32;2.30;;;1.60;;
781;SDS011;374;52.568;13.402;2023-06-04T13:00:58;1.87;;;1.77;;
781;SDS011;374;52.568;13.402;2023-06-04T13:03:25;1.60;;;1.50;;
781;SDS011;374;52.568;13.402;2023-06-04T13:05:51;3.40;;;1.50;;
781;SDS011;374;52.568;13.402;2023-06-04T13:08:18;1.80;;;1.70;;
781;SDS011;374;52.568;13.402;2023-06-04T13:10:45;2.23;;;1.70;;
781;SDS011;374;52.568;13.402;2023-06-04T13:13:11;2.47;;;1.43;;
781;SDS011;374;52.568;13.402;2023-06-04T13:15:36;1.90;;;1.60;;
781;SDS011;374;52.568;13.402;2023-06-04T13:18:02;1.70;;;1.60;;
781;SDS011;374;52.568;13.402;2023-06-04T13:20:28;1.70;;;1.60;;
781;SDS011;374;52.568;13.402;2023-06-04T13:22:53;2.00;;;1.60;;
781;SDS011;374;52.568;13.402;2023-06-04T13:25:19;2.27;;;1.40;;
781;SDS011;374;52.568;13.402;2023-06-04T13:27:44;1.67;;;1.57;;
781;SDS011;374;52.568;13.402;2023-06-04T13:30:10;1.80;;;1.43;;
781;SDS011;374;52.568;13.402;2023-06-04T13:32:36;1.63;;;1.40;;
781;SDS011;374;52.568;13.402;2023-06-04T13:35:02;2.70;;;2.00;;
781;SDS011;374;52.568;13.402;2023-06-04T13:37:27;1.80;;;1.50;;
781;SDS011;374;52.568;13.402;2023-06-04T13:39:53;1.50;;;1.40;;
781;SDS011;374;52.568;13.402;2023-06-04T13:42:18;1.50;;;1.40;;
781;SDS011;374;52.568;13.402;2023-06-04T13:44:44;2.57;;;1.63;;
781;SDS011;374;52.568;13.402;2023-06-04T13:47:10;2.60;;;1.60;;
781;SDS011;374;52.568;13.402;2023-06-04T13:49:35;2.27;;;1.50;;
781;SDS011;374;52.568;13.402;2023-06-04T13:52:01;1.60;;;1.50;;
781;SDS011;374;52.568;13.402;2023-06-04T13:54:26;1.70;;;1.60;;
781;SDS011;374;52.568;13.402;2023-06-04T13:56:51;2.20;;;2.00;;
781;SDS011;374;52.568;13.402;2023-06-04T13:59:17;3.30;;;1.73;;
781;SDS011;374;52.568;13.402;2023-06-04T14:01:43;1.63;;;1.33;;
781;SDS011;374;52.568;13.402;2023-06-04T14:04:08;2.73;;;1.53;;
781;SDS011;374;52.568;13.402;2023-06-04T14:06:35;2.73;;;1.60;;
781;SDS011;374;52.568;13.402;2023-06-04T14:09:01;2.03;;;1.80;;
781;SDS011;374;52.568;13.402;2023-06-04T14:11:26;3.50;;;1.70;;
781;SDS011;374;52.568;13.402;2023-06-04T14:13:52;1.73;;;1.20;;
781;SDS011;374;52.568;13.402;2023-06-04T14:16:17;2.37;;;1.67;;
781;SDS011;374;52.568;13.402;2023-06-04T14:18:43;2.20;;;2.00;;
781;SDS011;374;52.568;13.402;2023-06-04T14:21:08;2.60;;;1.80;;
781;SDS011;374;52.568;13.402;2023-06-04T14:23:34;2.30;;;1.70;;
781;SDS011;374;52.568;13.402;2023-06-04T14:25:59;1.70;;;1.50;;
781;SDS011;374;52.568;13.402;2023-06-04T14:28:25;2.20;;;1.77;;
781;SDS011;374;52.568;13.402;2023-06-04T14:30:50;1.60;;;1.50;;
781;SDS011;374;52.568;13.402;2023-06-04T14:33:16;2.37;;;1.73;;
781;SDS011;374;52.568;13.402;2023-06-04T14:35:41;1.40;;;1.30;;
781;SDS011;374;52.568;13.402;2023-06-04T14:38:11;1.50;;;1.40;;
781;SDS011;374;52.568;13.402;2023-06-04T14:40:38;2.37;;;1.60;;
781;SDS011;374;52.568;13.402;2023-06-04T14:43:03;2.87;;;1.70;;
781;SDS011;374;52.568;13.402;2023-06-04T14:45:29;1.90;;;1.80;;
781;SDS011;374;52.568;13.402;2023-06-04T14:47:54;2.73;;;1.50;;
781;SDS011;374;52.568;13.402;2023-06-04T14:50:20;5.53;;;1.73;;
781;SDS011;374;52.568;13.402;2023-06-04T14:52:47;1.83;;;1.63;;
781;SDS011;374;52.568;13.402;2023-06-04T14:55:12;2.00;;;1.80;;
781;SDS011;374;52.568;13.402;2023-06-04T14:57:38;3.70;;;2.53;;
781;SDS011;374;52.568;13.402;2023-06-04T15:00:03;1.70;;;1.60;;
781;SDS011;374;52.568;13.402;2023-06-04T15:02:30;2.07;;;1.70;;
781;SDS011;374;52.568;13.402;2023-06-04T15:04:55;3.93;;;1.77;;
781;SDS011;374;52.568;13.402;2023-06-04T15:07:22;1.47;;;1.37;;
781;SDS011;374;52.568;13.402;2023-06-04T15:09:48;1.77;;;1.67;;
781;SDS011;374;52.568;13.402;2023-06-04T15:12:16;2.87;;;2.10;;
781;SDS011;374;52.568;13.402;2023-06-04T15:14:43;2.10;;;1.90;;
781;SDS011;374;52.568;13.402;2023-06-04T15:17:08;3.13;;;1.90;;
781;SDS011;374;52.568;13.402;2023-06-04T15:19:34;2.70;;;1.40;;
781;SDS011;374;52.568;13.402;2023-06-04T15:22:00;2.80;;;2.10;;
781;SDS011;374;52.568;13.402;2023-06-04T15:24:25;3.87;;;2.63;;
781;SDS011;374;52.568;13.402;2023-06-04T15:26:51;2.70;;;1.80;;
781;SDS011;374;52.568;13.402;2023-06-04T15:29:16;1.83;;;1.73;;
781;SDS011;374;52.568;13.402;2023-06-04T15:31:42;3.73;;;1.60;;
781;SDS011;374;52.568;13.402;2023-06-04T15:34:07;1.67;;;1.57;;
781;SDS011;374;52.568;13.402;2023-06-04T15:36:33;2.50;;;1.40;;
781;SDS011;374;52.568;13.402;2023-06-04T15:38:59;2.60;;;1.80;;